createdAt,value
2018-05-26T00:00:12.804Z,93.10
2018-05-26T00:02:41.308Z,93.30
2018-05-26T00:05:09.637Z,93.50
2018-05-26T00:07:37.951Z,93.50
2018-05-26T00:12:40.968Z,93.50
2018-05-26T00:15:09.278Z,93.50
2018-05-26T00:17:37.716Z,93.40
2018-05-26T00:20:06.050Z,93.90
2018-05-26T00:22:34.131Z,94.00
2018-05-26T00:25:02.454Z,94.10
2018-05-26T00:27:30.768Z,94.20
2018-05-26T00:29:59.843Z,94.40
2018-05-26T00:32:28.176Z,94.30
2018-05-26T00:34:56.268Z,94.30
2018-05-26T00:37:24.582Z,94.20
2018-05-26T00:39:52.903Z,94.40
2018-05-26T00:42:21.231Z,94.30
2018-05-26T00:44:49.586Z,94.20
2018-05-26T00:47:17.905Z,94.40
2018-05-26T00:49:46.222Z,94.30
2018-05-26T00:52:15.316Z,94.80
2018-05-26T00:57:17.770Z,94.80
2018-05-26T00:59:46.100Z,94.80
2018-05-26T01:02:15.184Z,94.80
2018-05-26T01:04:43.722Z,94.80
2018-05-26T01:07:12.058Z,95.00
2018-05-26T01:09:40.369Z,94.90
2018-05-26T01:12:08.679Z,95.00
2018-05-26T01:14:37.010Z,94.90
2018-05-26T01:17:06.121Z,95.10
2018-05-26T01:19:34.441Z,95.10
2018-05-26T01:22:02.776Z,95.30
2018-05-26T01:24:31.090Z,95.30
2018-05-26T01:26:59.431Z,95.90
2018-05-26T01:29:27.452Z,95.50
2018-05-26T01:31:55.895Z,95.20
2018-05-26T01:34:24.222Z,95.50
2018-05-26T01:36:52.550Z,95.30
2018-05-26T01:39:20.864Z,95.50
2018-05-26T01:41:49.933Z,95.50
2018-05-26T01:44:18.247Z,95.50
2018-05-26T01:46:47.315Z,95.30
2018-05-26T01:49:15.643Z,95.30
2018-05-26T01:51:44.003Z,95.50
2018-05-26T01:54:13.062Z,95.80
2018-05-26T01:56:41.386Z,95.70
2018-05-26T01:59:10.496Z,95.60
2018-05-26T02:01:38.796Z,95.60
2018-05-26T02:04:07.120Z,95.60
2018-05-26T02:06:36.219Z,95.50
2018-05-26T02:09:03.733Z,95.50
2018-05-26T02:11:32.055Z,95.40
2018-05-26T02:14:00.384Z,95.40
2018-05-26T02:16:32.631Z,95.60
2018-05-26T02:21:34.534Z,95.70
2018-05-26T02:24:02.849Z,95.50
2018-05-26T02:26:34.369Z,95.50
2018-05-26T02:29:03.456Z,95.50
2018-05-26T02:31:31.780Z,95.50
2018-05-26T02:34:00.880Z,95.40
2018-05-26T02:36:29.196Z,95.40
2018-05-26T02:38:58.287Z,95.30
2018-05-26T02:41:29.836Z,95.00
2018-05-26T02:43:58.173Z,95.30
2018-05-26T02:46:27.278Z,95.30
2018-05-26T02:48:55.588Z,95.20
2018-05-26T02:51:23.918Z,95.00
2018-05-26T02:53:52.239Z,95.10
2018-05-26T02:56:20.548Z,94.90
2018-05-26T02:58:48.874Z,95.00
2018-05-26T03:01:17.177Z,95.00
2018-05-26T03:03:45.318Z,95.00
2018-05-26T03:06:19.374Z,94.90
2018-05-26T03:08:56.307Z,94.80
2018-05-26T03:11:29.940Z,94.80
2018-05-26T03:14:04.354Z,95.10
2018-05-26T03:16:35.620Z,95.40
2018-05-26T03:19:03.947Z,95.40
2018-05-26T03:21:32.262Z,95.20
2018-05-26T03:24:00.605Z,95.20
2018-05-26T03:26:28.971Z,95.50
2018-05-26T03:28:57.430Z,95.70
2018-05-26T03:31:25.747Z,95.50
2018-05-26T03:34:06.356Z,95.50
2018-05-26T03:36:34.668Z,95.50
2018-05-26T03:39:02.750Z,95.50
2018-05-26T03:41:31.083Z,95.40
2018-05-26T03:43:59.397Z,95.50
2018-05-26T03:46:27.720Z,95.60
2018-05-26T03:48:56.016Z,95.50
2018-05-26T03:51:24.374Z,95.40
2018-05-26T03:53:52.697Z,95.30
2018-05-26T03:56:32.285Z,95.20
2018-05-26T03:59:11.756Z,95.30
2018-05-26T04:01:40.092Z,95.10
2018-05-26T04:04:08.396Z,94.50
2018-05-26T04:06:36.702Z,94.30
2018-05-26T04:09:04.486Z,94.40
2018-05-26T04:11:32.807Z,94.10
2018-05-26T04:14:01.107Z,94.00
2018-05-26T04:16:29.418Z,94.10
2018-05-26T04:18:57.740Z,94.10
2018-05-26T04:21:26.050Z,94.00
2018-05-26T04:23:54.137Z,94.10
2018-05-26T04:26:22.454Z,93.90
2018-05-26T04:28:50.775Z,93.10
2018-05-26T04:31:19.081Z,93.40
2018-05-26T04:36:21.937Z,91.80
2018-05-26T04:38:50.258Z,91.80
2018-05-26T04:41:18.600Z,91.40
2018-05-26T04:43:46.904Z,91.30
2018-05-26T04:46:15.994Z,90.70
2018-05-26T04:48:45.093Z,90.60
2018-05-26T04:51:13.427Z,90.60
2018-05-26T04:53:41.733Z,90.50
2018-05-26T04:56:10.047Z,90.50
2018-05-26T04:58:39.158Z,90.40
2018-05-26T05:01:07.471Z,90.40
2018-05-26T05:03:36.574Z,90.10
2018-05-26T05:06:04.886Z,90.10
2018-05-26T05:11:07.174Z,89.80
2018-05-26T05:13:35.500Z,88.80
2018-05-26T05:16:03.814Z,88.30
2018-05-26T05:18:32.125Z,89.00
2018-05-26T05:21:00.453Z,88.20
2018-05-26T05:23:28.758Z,88.20
2018-05-26T05:26:00.236Z,86.60
2018-05-26T05:28:28.547Z,84.50
2018-05-26T05:30:57.663Z,85.80
2018-05-26T05:33:25.982Z,85.80
2018-05-26T05:35:57.974Z,83.50
2018-05-26T05:38:26.294Z,82.10
2018-05-26T05:40:57.931Z,81.70
2018-05-26T05:43:26.863Z,80.60
2018-05-26T05:45:55.790Z,78.80
2018-05-26T05:48:24.672Z,79.10
2018-05-26T05:50:54.344Z,78.60
2018-05-26T05:53:23.060Z,78.50
2018-05-26T05:55:52.724Z,77.00
2018-05-26T05:58:21.628Z,77.00
2018-05-26T06:00:50.515Z,76.60
2018-05-26T06:03:19.414Z,75.90
2018-05-26T06:05:48.292Z,76.40
2018-05-26T06:08:19.020Z,75.50
2018-05-26T06:10:47.900Z,74.60
2018-05-26T06:13:16.918Z,75.40
2018-05-26T06:15:45.802Z,75.40
2018-05-26T06:18:14.671Z,74.50
2018-05-26T06:20:43.579Z,75.20
2018-05-26T06:23:18.444Z,74.90
2018-05-26T06:25:56.472Z,74.40
2018-05-26T06:28:25.365Z,74.20
2018-05-26T06:30:55.067Z,73.60
2018-05-26T06:33:23.962Z,73.50
2018-05-26T06:35:52.903Z,73.20
2018-05-26T06:38:21.986Z,74.10
2018-05-26T06:40:50.871Z,74.40
2018-05-26T06:43:19.979Z,74.50
2018-05-26T06:45:48.874Z,74.90
2018-05-26T06:48:17.187Z,74.60
2018-05-26T06:50:46.103Z,74.20
2018-05-26T06:53:15.195Z,73.20
2018-05-26T06:55:44.101Z,73.30
2018-05-26T06:58:13.017Z,73.00
2018-05-26T07:00:41.936Z,73.20
2018-05-26T07:03:10.837Z,73.90
2018-05-26T07:05:39.770Z,73.10
2018-05-26T07:08:11.665Z,72.20
2018-05-26T07:10:40.567Z,71.20
2018-05-26T07:13:09.487Z,70.50
2018-05-26T07:15:39.153Z,70.70
2018-05-26T07:18:17.039Z,70.40
2018-05-26T07:20:45.916Z,70.90
2018-05-26T07:23:14.821Z,71.10
2018-05-26T07:25:43.728Z,70.40
2018-05-26T07:28:12.642Z,71.00
2018-05-26T07:30:42.348Z,70.40
2018-05-26T07:33:11.247Z,70.40
2018-05-26T07:35:43.160Z,71.00
2018-05-26T07:38:11.557Z,70.40
2018-05-26T07:40:40.468Z,71.30
2018-05-26T07:43:09.415Z,70.60
2018-05-26T07:45:38.330Z,70.30
2018-05-26T07:48:07.244Z,70.90
2018-05-26T07:50:35.822Z,71.80
2018-05-26T07:53:05.494Z,71.40
2018-05-26T07:55:34.402Z,71.30
2018-05-26T07:58:03.292Z,70.90
2018-05-26T08:00:32.172Z,69.50
2018-05-26T08:03:01.087Z,69.70
2018-05-26T08:05:30.207Z,68.50
2018-05-26T08:08:11.234Z,69.50
2018-05-26T08:10:40.173Z,69.80
2018-05-26T08:13:09.846Z,69.70
2018-05-26T08:15:38.782Z,69.60
2018-05-26T08:18:07.694Z,69.60
2018-05-26T08:20:36.625Z,67.80
2018-05-26T08:23:05.539Z,68.80
2018-05-26T08:25:34.434Z,68.50
2018-05-26T08:28:03.365Z,68.30
2018-05-26T08:30:33.040Z,69.30
2018-05-26T08:33:01.948Z,69.40
2018-05-26T08:35:30.844Z,70.30
2018-05-26T08:37:59.791Z,69.50
2018-05-26T08:40:28.683Z,66.30
2018-05-26T08:42:57.603Z,68.10
2018-05-26T08:45:26.511Z,68.10
2018-05-26T08:47:55.396Z,69.00
2018-05-26T08:50:24.303Z,67.30
2018-05-26T08:52:53.217Z,69.20
2018-05-26T08:55:22.111Z,65.20
2018-05-26T08:57:51.026Z,65.50
2018-05-26T09:00:20.422Z,64.00
2018-05-26T09:02:49.318Z,65.70
2018-05-26T09:05:18.222Z,64.40
2018-05-26T09:07:47.193Z,65.10
2018-05-26T09:10:16.084Z,65.40
2018-05-26T09:12:44.985Z,62.00
2018-05-26T09:15:13.880Z,63.90
2018-05-26T09:17:42.768Z,64.40
2018-05-26T09:20:11.662Z,62.20
2018-05-26T09:22:40.540Z,63.10
2018-05-26T09:25:09.466Z,62.10
2018-05-26T09:27:38.519Z,60.90
2018-05-26T09:30:07.415Z,61.10
2018-05-26T09:32:36.316Z,61.60
2018-05-26T09:35:05.189Z,60.20
2018-05-26T09:37:34.836Z,59.30
2018-05-26T09:40:03.515Z,59.30
2018-05-26T09:42:32.580Z,60.20
2018-05-26T09:45:01.462Z,59.80
2018-05-26T09:47:30.366Z,58.80
2018-05-26T09:49:59.252Z,59.50
2018-05-26T09:52:28.176Z,59.30
2018-05-26T09:54:57.109Z,59.40
2018-05-26T09:57:26.011Z,60.40
2018-05-26T09:59:55.224Z,59.10
2018-05-26T10:02:24.136Z,60.30
2018-05-26T10:04:53.016Z,59.80
2018-05-26T10:07:21.902Z,59.20
2018-05-26T10:09:50.783Z,59.80
2018-05-26T10:12:19.675Z,58.10
2018-05-26T10:14:48.563Z,58.80
2018-05-26T10:17:17.439Z,58.80
2018-05-26T10:19:46.326Z,58.50
2018-05-26T10:22:15.208Z,60.30
2018-05-26T10:24:44.101Z,61.70
2018-05-26T10:27:13.008Z,59.00
2018-05-26T10:29:41.916Z,58.10
2018-05-26T10:32:10.804Z,59.20
2018-05-26T10:34:40.661Z,58.30
2018-05-26T10:37:10.331Z,59.90
2018-05-26T10:39:39.989Z,56.10
2018-05-26T10:42:08.893Z,56.00
2018-05-26T10:44:37.787Z,56.20
2018-05-26T10:47:06.694Z,58.90
2018-05-26T10:49:35.746Z,58.10
2018-05-26T10:52:04.314Z,59.20
2018-05-26T10:54:33.964Z,57.30
2018-05-26T10:57:02.873Z,57.10
2018-05-26T10:59:31.748Z,57.70
2018-05-26T11:02:00.642Z,57.40
2018-05-26T11:04:29.600Z,59.10
2018-05-26T11:06:58.649Z,59.20
2018-05-26T11:09:27.526Z,58.80
2018-05-26T11:11:56.607Z,57.40
2018-05-26T11:14:25.512Z,57.10
2018-05-26T11:16:54.084Z,57.40
2018-05-26T11:19:22.643Z,56.70
2018-05-26T11:21:51.693Z,57.20
2018-05-26T11:24:20.619Z,56.50
2018-05-26T11:26:49.715Z,57.00
2018-05-26T11:29:19.408Z,56.20
2018-05-26T11:31:48.311Z,56.20
2018-05-26T11:34:17.200Z,56.00
2018-05-26T11:36:45.746Z,55.30
2018-05-26T11:39:14.665Z,55.30
2018-05-26T11:41:43.584Z,56.10
2018-05-26T11:44:12.477Z,57.00
2018-05-26T11:46:41.370Z,56.20
2018-05-26T11:49:10.279Z,57.10
2018-05-26T11:51:39.186Z,56.00
2018-05-26T11:54:08.173Z,56.20
2018-05-26T11:56:37.064Z,55.50
2018-05-26T11:59:05.939Z,54.80
2018-05-26T12:01:38.855Z,54.50
2018-05-26T12:04:08.519Z,54.80
2018-05-26T12:06:37.414Z,54.70
2018-05-26T12:09:05.975Z,55.40
2018-05-26T12:11:34.888Z,51.10
2018-05-26T12:14:03.789Z,53.80
2018-05-26T12:16:32.673Z,52.30
2018-05-26T12:19:01.601Z,52.70
2018-05-26T12:21:30.485Z,52.70
2018-05-26T12:24:00.183Z,51.10
2018-05-26T12:26:29.819Z,51.40
2018-05-26T12:28:58.711Z,51.50
2018-05-26T12:31:27.616Z,52.10
2018-05-26T12:33:56.519Z,51.60
2018-05-26T12:36:26.335Z,52.00
2018-05-26T12:38:55.255Z,52.00
2018-05-26T12:41:24.157Z,52.20
2018-05-26T12:43:53.245Z,51.20
2018-05-26T12:46:22.137Z,50.70
2018-05-26T12:48:50.690Z,52.30
2018-05-26T12:51:20.445Z,51.40
2018-05-26T12:53:49.339Z,51.30
2018-05-26T12:56:19.219Z,50.20
2018-05-26T12:58:48.195Z,50.10
2018-05-26T13:01:17.097Z,51.50
2018-05-26T13:03:45.712Z,50.80
2018-05-26T13:06:14.636Z,51.50
2018-05-26T13:08:43.733Z,49.90
2018-05-26T13:11:12.628Z,49.50
2018-05-26T13:16:35.072Z,50.00
2018-05-26T13:19:03.941Z,50.40
2018-05-26T13:21:32.859Z,48.70
2018-05-26T13:24:01.747Z,50.00
2018-05-26T13:26:30.747Z,48.80
2018-05-26T13:28:59.633Z,48.00
2018-05-26T13:31:28.250Z,49.00
2018-05-26T13:33:56.921Z,48.70
2018-05-26T13:36:25.520Z,49.80
2018-05-26T13:38:54.124Z,48.50
2018-05-26T13:41:22.720Z,47.70
2018-05-26T13:43:51.320Z,48.20
2018-05-26T13:46:19.893Z,47.50
2018-05-26T13:48:48.771Z,48.10
2018-05-26T13:51:17.704Z,47.20
2018-05-26T13:53:46.496Z,48.00
2018-05-26T13:56:15.333Z,47.70
2018-05-26T13:58:44.081Z,47.20
2018-05-26T14:01:12.664Z,47.00
2018-05-26T14:03:42.010Z,45.80
2018-05-26T14:06:10.603Z,45.80
2018-05-26T14:08:39.239Z,46.40
2018-05-26T14:11:07.584Z,45.60
2018-05-26T14:13:36.162Z,46.10
2018-05-26T14:16:04.752Z,45.80
2018-05-26T14:18:33.341Z,45.20
2018-05-26T14:21:01.952Z,44.70
2018-05-26T14:23:31.324Z,44.60
2018-05-26T14:25:59.911Z,44.60
2018-05-26T14:28:28.503Z,44.70
2018-05-26T14:30:56.751Z,44.40
2018-05-26T14:33:25.524Z,43.50
2018-05-26T14:35:54.135Z,42.50
2018-05-26T14:38:22.485Z,42.40
2018-05-26T14:40:51.052Z,43.90
2018-05-26T14:43:20.275Z,43.10
2018-05-26T14:45:49.072Z,41.90
2018-05-26T14:48:17.840Z,42.60
2018-05-26T14:50:46.419Z,40.50
2018-05-26T14:53:15.127Z,40.80
2018-05-26T14:55:43.696Z,41.30
2018-05-26T14:58:12.288Z,39.70
2018-05-26T15:00:41.099Z,39.00
2018-05-26T15:03:09.682Z,39.90
2018-05-26T15:05:38.281Z,38.00
2018-05-26T15:08:06.888Z,37.60
2018-05-26T15:10:35.643Z,37.90
2018-05-26T15:13:04.047Z,37.70
2018-05-26T15:15:32.783Z,36.70
2018-05-26T15:18:01.393Z,34.80
2018-05-26T15:20:29.996Z,36.20
2018-05-26T15:22:58.585Z,35.40
2018-05-26T15:25:27.189Z,36.10
2018-05-26T15:27:55.794Z,33.50
2018-05-26T15:30:24.621Z,33.00
2018-05-26T15:32:53.212Z,33.20
2018-05-26T15:35:21.793Z,33.30
2018-05-26T15:37:51.349Z,33.50
2018-05-26T15:40:19.944Z,33.40
2018-05-26T15:42:48.535Z,32.90
2018-05-26T15:45:17.112Z,31.80
2018-05-26T15:47:45.704Z,32.90
2018-05-26T15:50:14.297Z,33.90
2018-05-26T15:52:42.894Z,34.30
2018-05-26T15:55:11.503Z,32.80
2018-05-26T15:57:40.094Z,33.30
2018-05-26T16:00:08.686Z,33.40
2018-05-26T16:02:37.251Z,33.00
2018-05-26T16:05:05.503Z,34.60
2018-05-26T16:07:35.591Z,32.40
2018-05-26T16:10:04.191Z,31.70
2018-05-26T16:12:32.780Z,33.80
2018-05-26T16:15:01.370Z,32.60
2018-05-26T16:17:29.969Z,31.80
2018-05-26T16:19:58.557Z,32.10
2018-05-26T16:22:27.157Z,31.50
2018-05-26T16:24:55.511Z,30.50
2018-05-26T16:27:24.134Z,30.00
2018-05-26T16:29:52.740Z,31.40
2018-05-26T16:32:21.322Z,30.70
2018-05-26T16:34:49.909Z,32.10
2018-05-26T16:37:18.500Z,32.30
2018-05-26T16:39:47.087Z,31.80
2018-05-26T16:42:15.654Z,33.10
2018-05-26T16:44:44.260Z,31.30
2018-05-26T16:47:12.862Z,31.90
2018-05-26T16:49:41.426Z,30.30
2018-05-26T16:52:10.059Z,31.10
2018-05-26T16:54:39.434Z,31.10
2018-05-26T16:57:08.046Z,31.10
2018-05-26T16:59:36.654Z,30.90
2018-05-26T17:02:04.677Z,32.30
2018-05-26T17:04:33.279Z,32.60
2018-05-26T17:07:01.879Z,33.10
2018-05-26T17:09:30.506Z,34.60
2018-05-26T17:11:59.270Z,34.70
2018-05-26T17:14:27.864Z,35.80
2018-05-26T17:16:56.460Z,36.60
2018-05-26T17:19:25.036Z,37.10
2018-05-26T17:21:53.623Z,38.00
2018-05-26T17:24:22.215Z,40.20
2018-05-26T17:26:50.843Z,40.00
2018-05-26T17:29:19.481Z,38.30
2018-05-26T17:31:48.880Z,40.40
2018-05-26T17:34:17.523Z,40.40
2018-05-26T17:36:46.820Z,41.40
2018-05-26T17:39:16.724Z,41.10
2018-05-26T17:41:45.368Z,41.40
2018-05-26T17:44:14.016Z,41.50
2018-05-26T17:46:42.605Z,41.50
2018-05-26T17:49:11.224Z,42.70
2018-05-26T17:51:39.808Z,42.70
2018-05-26T17:54:08.409Z,42.50
2018-05-26T17:56:37.313Z,43.40
2018-05-26T17:59:06.201Z,44.30
2018-05-26T18:01:35.128Z,44.20
2018-05-26T18:04:04.540Z,44.60
2018-05-26T18:06:33.474Z,44.60
2018-05-26T18:09:02.369Z,44.80
2018-05-26T18:11:31.248Z,44.90
2018-05-26T18:14:00.144Z,46.80
2018-05-26T18:16:29.031Z,45.70
2018-05-26T18:18:57.923Z,47.00
2018-05-26T18:21:26.525Z,46.90
2018-05-26T18:23:55.403Z,47.40
2018-05-26T18:26:24.311Z,48.10
2018-05-26T18:28:53.693Z,48.10
2018-05-26T18:31:22.606Z,48.80
2018-05-26T18:33:52.287Z,49.20
2018-05-26T18:36:21.178Z,49.20
2018-05-26T18:38:50.085Z,49.80
2018-05-26T18:41:18.959Z,50.00
2018-05-26T18:43:47.885Z,50.20
2018-05-26T18:46:17.572Z,50.10
2018-05-26T18:48:47.659Z,50.10
2018-05-26T18:51:16.724Z,49.30
2018-05-26T18:53:45.635Z,50.30
2018-05-26T18:56:15.295Z,50.80
2018-05-26T18:58:44.178Z,50.70
2018-05-26T19:01:13.088Z,50.90
2018-05-26T19:03:45.003Z,50.90
2018-05-26T19:06:16.525Z,52.00
2018-05-26T19:08:45.408Z,51.40
2018-05-26T19:11:14.333Z,51.40
2018-05-26T19:13:43.226Z,51.60
2018-05-26T19:16:12.132Z,52.30
2018-05-26T19:18:41.153Z,51.70
2018-05-26T19:21:10.056Z,52.20
2018-05-26T19:23:38.931Z,52.00
2018-05-26T19:26:07.819Z,52.90
2018-05-26T19:31:11.539Z,54.50
2018-05-26T19:33:40.440Z,53.60
2018-05-26T19:36:09.321Z,54.60
2018-05-26T19:38:38.181Z,53.90
2018-05-26T19:41:07.068Z,55.90
2018-05-26T19:43:35.968Z,54.60
2018-05-26T19:46:04.846Z,54.90
2018-05-26T19:48:33.792Z,55.30
2018-05-26T19:51:02.789Z,54.90
2018-05-26T19:53:31.652Z,54.80
2018-05-26T19:56:00.554Z,55.70
2018-05-26T19:58:29.459Z,55.90
2018-05-26T20:00:58.358Z,55.90
2018-05-26T20:03:28.368Z,56.40
2018-05-26T20:05:57.253Z,56.00
2018-05-26T20:08:26.147Z,56.70
2018-05-26T20:10:55.129Z,56.60
2018-05-26T20:13:24.082Z,55.80
2018-05-26T20:15:53.032Z,56.90
2018-05-26T20:18:22.985Z,56.90
2018-05-26T20:20:53.745Z,56.20
2018-05-26T20:23:22.319Z,56.30
2018-05-26T20:25:50.906Z,57.30
2018-05-26T20:34:07.619Z,57.40
2018-05-26T20:36:36.524Z,57.80
2018-05-26T20:39:04.846Z,57.20
2018-05-26T20:41:33.419Z,56.40
2018-05-26T20:44:02.323Z,55.90
2018-05-26T20:46:31.222Z,55.80
2018-05-26T20:48:59.786Z,56.90
2018-05-26T20:51:28.692Z,57.00
2018-05-26T20:53:57.590Z,55.50
2018-05-26T20:56:26.464Z,57.10
2018-05-26T20:58:55.573Z,56.30
2018-05-26T21:01:26.832Z,56.80
2018-05-26T21:03:55.161Z,57.20
2018-05-26T21:06:24.068Z,57.60
2018-05-26T21:08:52.930Z,57.20
2018-05-26T21:11:22.071Z,58.20
2018-05-26T21:13:50.979Z,58.20
2018-05-26T21:16:20.668Z,61.20
2018-05-26T21:18:49.538Z,61.20
2018-05-26T21:21:18.465Z,60.20
2018-05-26T21:23:47.393Z,61.30
2018-05-26T21:26:16.303Z,62.20
2018-05-26T21:28:44.613Z,62.30
2018-05-26T21:31:13.518Z,61.70
2018-05-26T21:33:42.460Z,61.20
2018-05-26T21:36:12.107Z,61.70
2018-05-26T21:38:40.640Z,61.60
2018-05-26T21:41:09.531Z,61.30
2018-05-26T21:43:38.406Z,60.90
2018-05-26T21:46:08.104Z,63.10
2018-05-26T21:48:37.003Z,62.30
2018-05-26T21:51:05.888Z,61.90
2018-05-26T21:53:34.775Z,60.10
2018-05-26T21:56:03.637Z,60.20
2018-05-26T21:58:32.546Z,60.80
2018-05-26T22:01:01.425Z,60.50
2018-05-26T22:03:30.309Z,60.50
2018-05-26T22:05:59.239Z,58.80
2018-05-26T22:08:28.318Z,58.90
2018-05-26T22:10:57.196Z,58.40
2018-05-26T22:13:26.132Z,58.50
2018-05-26T22:15:54.995Z,58.10
2018-05-26T22:18:23.884Z,57.70
2018-05-26T22:20:52.990Z,57.50
2018-05-26T22:23:21.676Z,56.60
2018-05-26T22:25:51.321Z,57.40
2018-05-26T22:28:20.384Z,57.50
2018-05-26T22:30:49.447Z,56.20
2018-05-26T22:33:18.329Z,55.50
2018-05-26T22:35:47.205Z,55.50
2018-05-26T22:38:16.066Z,57.20
2018-05-26T22:40:44.981Z,55.40
2018-05-26T22:43:13.848Z,55.50
2018-05-26T22:45:42.721Z,56.70
2018-05-26T22:48:11.705Z,55.40
2018-05-26T22:50:40.592Z,56.10
2018-05-26T22:53:09.469Z,55.30
2018-05-26T22:55:38.370Z,55.80
2018-05-26T22:58:07.000Z,55.60
2018-05-26T23:00:35.894Z,56.70
2018-05-26T23:03:04.448Z,55.60
2018-05-26T23:05:34.111Z,55.60
2018-05-26T23:08:02.989Z,55.60
2018-05-26T23:10:31.302Z,56.90
2018-05-26T23:13:00.185Z,55.60
2018-05-26T23:15:29.061Z,56.40
2018-05-26T23:17:57.366Z,55.70
2018-05-26T23:20:26.252Z,56.10
2018-05-26T23:22:55.130Z,55.40
2018-05-26T23:25:23.453Z,56.00
2018-05-26T23:27:52.325Z,55.90
2018-05-26T23:30:21.191Z,56.20
2018-05-26T23:32:50.053Z,55.20
2018-05-26T23:35:19.002Z,55.80
2018-05-26T23:37:47.895Z,56.10
2018-05-26T23:40:16.779Z,56.80
2018-05-26T23:42:45.843Z,57.00
2018-05-26T23:45:14.706Z,56.90
2018-05-26T23:47:43.586Z,58.80
2018-05-26T23:50:12.449Z,58.20
2018-05-26T23:52:40.799Z,57.00
2018-05-26T23:55:09.702Z,57.90
2018-05-26T23:57:38.577Z,58.20
